今日のアクセス数

    岡山グライダークラブ活動状況掲示板あなたは無料カウンター人目の訪問者です

岡山グライダークラブ
岡山市浦安南町639-1 岡南飛行場
 使用機:シャイベ式 SF25C型 ファルケ   JA2330
      ヴァレンティン式17E型 タイフーン  JA2342
 練習日:毎日曜日  クラブルーム:電話 086-265-1810
この掲示板は岡山グライダークラブの活動状況をお知らせする掲示板です。
!!!この掲示板は投稿規制をしています。!!!
クラブ関連各種情報は 岡山グライダークラブクラブルーム      を       .
  ブリーフイング情報は  岡山グライダークラブブリーフィングルーム  をご覧下さい。 .
※写真はクリックすると拡大して見ることが出来ます。
岡南飛行場へのアクセス等は 岡南飛行場管理事務所 をご覧ください。
クラブの ホームページ ができました。

ページ 1 (1〜10)ホームページへ戻る

10月13日
by OGC at 2019/10/13(日) 23:42:21 No.20191013234026 コメント】  削除 引用
1477 x 1108 x 78,424バイト <この画像は大きいので別画面で表示します>
No.1

10月13日
本日の参加者
  会員      15名
  その他      0名


@本日の様子




METAR
RJBK 130000Z 33004KT 280V030 25KM FEW025CU SCT035CU 21/11 Q1017 A3005
RJOB 130000Z 01011KT 340V040 9999 FEW025 19/11 Q1017
RJOT 130000Z 28005KT 240V330 9999 FEW025 19/10 Q1018
RJOA 130000Z 03010KT 340V060 9999 FEW015 SCT025 17/06 Q1018
TAF
RJOB 122311Z 1300/1406 01014KT 9999 FEW030
         TEMPO 1300/1303 01015G25KT
         BECMG 1310/1312 02004KT
RJOT 22307Z 1300/1406 24005KT 9999 FEW030
         BECMG 1301/1303 06007KT
         BECMG 1315/1318 32005KT
RJOA 122305Z 1300/1406 04010KT 9999 FEW030
         BECMG 1315/1318 35005KT

本日は、心配していた台風19号の影響もほとんどなく、訓練生は高松空港に行って来たり、TGL訓練したり、楽しく訓練していました。
日没が段々と早くなって、今までのように2フライトはできなくなりました。

解散    18:00

1番機  10:30離陸 撤収機  17:25着陸 

SF25C JA2330 ファルケ     09Flt.3h50min  
17E   JA2342 タイフーン    03Flt.1h25min  
合計                    12Flt.5h15min
10月06日
by OGC at 2019/10/6(日) 22:37:17 No.20191006223259 コメント】  削除 引用
1024 x 768 x 88,822バイト
No.1

10月06日
本日の参加者
  会員      14名
  その他      0名


@本日の様子




METAR
RJOB 060000Z 01009KT 340V040 9999 FEW015 SCT025 BKN060 21/16 Q1020
RJOT 060000Z 33005KT 280V030 9999 FEW015 SCT025 BKN040 22/17 Q1020
RJOA 060000Z 36008KT 330V040 9999 FEW015 SCT020 BKN080 20/13 Q1021
TAF
RJOB 052307Z 0600/0706 02010KT 9999 FEW025 BKN045
RJOT 052305Z 0600/0706 30004KT 9999 FEW025 BKN040
         BECMG 0600/0602 06008KT
RJOA 052306Z 0600/0706 08006KT 9999 FEW025 BKN040

本日は、朝、小雨がパラパラしましたが、その後、日差しが差し込み積雲がポコポコと出来、みんな、サーマルを探して飛びまわっていました。

解散    18:00

1番機  11:20離陸 撤収機  17:10着陸 

SF25C JA2330 ファルケ     09Flt.3h45min  
17E   JA2342 タイフーン    03Flt.1h15min  
合計                    12Flt.5h00min

09月29日
by OGC at 2019/9/29(日) 20:30:43 No.20190929202915 コメント】  削除 引用
1024 x 768 x 78,326バイト
No.1

09月29日
本日の参加者
  会員      16名
  その他      1名


@本日の様子




METAR
RJBK 290000Z 36003KT 260V060 20KM FEW020CU SCT030CU BKN080AC 26/21 1016/3002
RJOB 290000Z 08003KT 030V120 9999 FEW015 BKN020 BKN/// 24/20 Q1017
RJOT 290000Z VRB02KT 9999 FEW010 BKN080 25/22 Q1017
RJOA 290000Z VRB02KT 9999 FEW010 SCT015 BKN070 23/19 Q1018
TAF
RJOB 282306Z 2900/3006 09004KT 9999 FEW015 SCT025
         TEMPO 2906/2909 TS FEW008 SCT020 FEW025CB BKN035
RJOT 282308Z 2900/3006 05006KT 9999 FEW025 SCT050
RJOA 282306Z 2900/3006 12004KT 9999 FEW025 SCT040
         TEMPO 2906/2909 TS FEW008 SCT020 FEW025CB BKN030
         BECMG 2909/2911 32005KT
         BECMG 3003/3006 13005KT

風もほとんどなく、本日は絶好の訓練日和。
訓練生は、サーマルトレーニングやTGLを行い、各自、課題の克服に専念し、ライセンサーは、直島方面に出かけたり、サーマルを探してウロチョロしたりしていたようです。


解散    18:00

1番機  10:20離陸 撤収機  17:30着陸 

SF25C JA2330 ファルケ     12Flt.4h25min  
17E   JA2342 タイフーン    05Flt.2h05min  
合計                    17Flt.6h30min

09月22日
by OGC at 2019/9/22(日) 22:32:49 No.20190922222811 コメント】  削除 引用
1024 x 768 x 101,999バイト
No.1

09月22日
本日の参加者
  会員      13名
  その他      0名


@本日の様子




METAR
RJOB 220000Z 07008KT 2500 SHRA BR BCFG FEW000 SCT002 BKN020 20/19 Q1013
RJOT 220000Z 06010KT 1500 R26/1900N +SHRA BR FEW000 SCT002 BKN010 21/21 Q1013
RJOA 220000Z 07016KT 9999 -SHRA BCFG FEW000 SCT002 BKN005 21/19 Q1012
TAF
RJOB 212314Z 2200/2306 08014KT 8000 -SHRA FEW003 SCT008 BKN020
     TEMPO 2200/2206 4000 -SHRA BR FEW003 BKN008 BKN020
     TEMPO 2206/2212 09018G28KT 3000 SHRA BR FEW001 BKN005 BKN008
     BECMG 2218/2221 24015KT
     TEMPO 2221/2300 24018G28KT
RJOT 212305Z 2200/2306 08011KT 9999 FEW015 SCT030 BKN050
     TEMPO 2200/2203 4000 SHRA BR FEW001 BKN005 BKN015
     BECMG 2215/2218 20012KT
     BECMG 2221/2300 26014KT
RJOA 212308Z 2200/2306 09015KT 7000 -SHRA FEW001 SCT008 BKN015
     TEMPO 2200/2202 4000 -SHRA BR BCFG FEW000 SCT003 BKN008
     TEMPO 2202/2211 3000 SHRA BR BCFG FEW000 BKN008 BKN015
     BECMG 2212/2215 15012KT
     BECMG 2215/2218 20016G27KT
     BECMG 2300/2303 27008KT


台風の影響で雨と風、フライトを諦めていると、そこは「晴れの国、岡山」、雨雲が東にそれ部分的に青空がのぞいて来ました。
急いで機体点検を済ませ1フライトした後、また、雨が少し強くなったので格納庫で待機、雨が止むと今度は風の方位が北にズレ待機、クラブルームで気象の講義を行い、本日のフライトを諦めました。

解散    14:40

1番機  12:10離陸 撤収機  12:20着陸 

SF25C JA2330 ファルケ     01Flt.0h10min  
17E   JA2342 タイフーン    00Flt.0h00min  
合計                    01Flt.0h10min
09月15日
by OGC at 2019/9/15(日) 21:01:56 No.20190915205834 コメント】  削除 引用
1024 x 768 x 79,562バイト
No.1

09月15日
本日の参加者
  会員      15名
  その他      0名


@本日の様子




METAR
RJBK 080000Z 11002KT 080V140 30KM FEW015CU SCT025CU 30/24 Q1010 A2983
RJOB 150000Z 09005KT 050V120 9999 FEW015 SCT/// 26/21 Q1010
RJOT 150000Z 05005KT 010V110 9999 FEW015 SCT025 26/22 Q1010
RJOA 150000Z 09006KT 050V120 9999 FEW020 26/18 Q1011
TAF
RJOB 142305Z 1500/1606 08006KT 9999 FEW025
RJOT 142306Z 1500/1606 06006KT 9999 FEW030 SCT050
RJOA 142305Z 1500/1606 13006KT 9999 FEW030 SCT045


風がほとんどないソロ日和、訓練生はTGLの練習に汗を流し、本日1名が初ソロを達成しました。パチパチ(^_^)v
一方、タイフーンは尾道、宇多津へのNAVや孫を乗せてNAVに出たり、サーマルを探してウロチョロしていました。


解散    18:00

1番機  10:20離陸 撤収機  17:20着陸 

SF25C JA2330 ファルケ     13Flt.3h55min  
17E   JA2342 タイフーン    05Flt.3h20min  
合計                    18Flt.7h15min
09月08日
by OGC at 2019/9/8(日) 23:44:28 No.20190908234203 コメント】  削除 引用
1024 x 768 x 69,673バイト
No.1

09月08日
本日の参加者
  会員      14名
  その他      0名


@本日の様子




METAR
RJBK 080000Z 11002KT 080V140 30KM FEW015CU SCT025CU 30/24 Q1010 A2983
RJOB 080000Z 10005KT 060V140 9999 FEW010 SCT015 BKN025 27/24 Q1011
RJOT 080000Z 11004KT 050V170 9999 FEW020 SCT/// 29/24 Q1011
RJOA 080000Z 12005KT 080V180 9999 FEW015 SCT120 27/22 Q1012
TAF
RJOB 072309Z 0800/0906 12008KT 9999 FEW015 SCT035
         BECMG 0812/0815 24006KT
RJOT 072309Z 0800/0906 09004KT 9999 FEW015 SCT025 BKN040
         BECMG 0803/0805 26005KT
         BECMG 0810/0812 15005KT
RJOA 072306Z 0800/0906 13005KT 9999 FEW015 SCT035
         BECMG 0808/0810 32004KT

朝から積雲が沢山出来てたので、期待していたのですが、昼頃から積雲がなくなっていました。
本日からファルケとタイフーンの2機体制で、ファルケはいつもの訓練フライトでソロ目前の課題克服のため、みんな頑張っていました。
一方、タイフーンは久々の訓練フライトになりました。

解散    16:55

1番機  10:50離陸 撤収機  16:15着陸 

SF25C JA2330 ファルケ     09Flt.2h30min  
17E   JA2342 タイフーン    05Flt.1h30min  
合計                    14Flt.4h00min
09月01日
by OGC at 2019/9/1(日) 20:30:16 No.20190901202702 コメント】  削除 引用
1024 x 768 x 99,820バイト
No.1

09月01日
本日の参加者
  会員      14名
  その他      0名


@本日の様子




METAR
RJOB 010000Z VRB01KT 8000 -SHRA FEW008 SCT020 BKN130 22/21 Q1019
RJOT 010000Z VRB01KT 9999 FEW025 SCT100 BKN160 25/21 Q1019
RJOA 010000Z VRB02KT 5000 -SHRA BCFG BR FEW000 SCT020 BKN030 20/18 Q1020
TAF
RJOB 312308Z 0100/0206 12004KT 7000 -RA FEW005 SCT008 BKN015
         BECMG 0100/0102 4000 -SHRA BR FEW001 SCT005 BKN008
         TEMPO 0102/0109 2000 SHRA BR BCFG FEW000 SCT001 BKN003
         BECMG 0112/0115 8000 NSW FEW001 SCT008 BKN015
         TEMPO 0121/0203 FEW001 BKN008 BKN015
RJOT 312312Z 0100/0206 06007KT 6000 FEW008 SCT015 BKN035
         TEMPO 0102/0106 4000 -SHRA BR FEW001 SCT005 BKN008
RJOA 010508Z 0106/0212 12004KT 6000 FEW001 SCT004 BKN008
         TEMPO 0106/0110 3000 BR BCFG FEW000 SCT003 BKN005
         BECMG 0110/0112 4000 -SHRA BR BCFG
         TEMPO 0112/0118 1500 SHRA BR BCFG FEW000 SCT002 BKN003
         BECMG 0118/0121 9999 NSW FEW008 SCT025
         BECMG 0200/0203 23005KT

本日は、雨がいつ降ってもおかしくない天候でしたが、そこは「晴れの国」パワーで帰る頃には晴れていました。
ファルケは、短めの訓練フライトを繰り返し、気が付くと13フライトも飛んでいました。
一方、タイフーンは社内検査フライトに耐空検査フライトを行い、来週からいつも通りの通常訓練になります。

解散    18:10

1番機  10:55離陸 撤収機  17:25着陸 

SF25C JA2330 ファルケ     13Flt.2h30min  
17E   JA2342 タイフーン    02Flt.1h00min  
合計                    15Flt.3h35min
8月25日
by OGC at 2019/8/25(日) 20:26:40 No.20190825202313 コメント】  削除 引用
1024 x 768 x 89,581バイト
No.1

08月25日
本日の参加者
  会員      14名
  その他      1名


@本日の様子




METAR
RJBK 250000Z 26008KT 20KM FEW020CU SCT/// 26/20 Q1013 A2992
RJOB 250000Z 25003KT 190V300 9999 FEW010 SCT050 BKN/// 24/20 Q1013
RJOT 250000Z 28008KT 9999 FEW020 SCT/// 25/21 Q1013
RJOA 250000Z 24004KT 210V290 9999 FEW008 SCT010 BKN/// 22/18 Q1014
TAF
RJOB  242306Z 2500/2606 25005KT 9999 FEW015 SCT030
     BECMG 2509/2511 03004KT
RJOT 242305Z 2500/2606 28009KT 9999 FEW030
     BECMG 2521/2600 06008KT
RJOA 242307Z 2500/2606 20006KT 9999 FEW020 SCT040
     BECMG 2510/2512 06004KT

お盆を過ぎると暑さも少し和らいできました。
先週とうって変わって、本日は教官が5名。これぐらいいた方が運用が楽ですね。
一方、タイフーンは順調に整備が完了し、来週には耐空検査を受ける予定です。

解散    17:30

1番機  10:30離陸 撤収機  17:00着陸 

SF25C JA2330 ファルケ     09Flt.3h45min  
17E   JA2342 タイフーン    00Flt.0h00min  
合計                    09Flt.3h45min
8月18日
by OGC at 2019/8/18(日) 22:23:30 No.20190818222055 コメント】  削除 引用
1024 x 768 x 62,609バイト
No.1

08月18日
本日の参加者
  会員      13名
  その他      0名


@本日の様子




METAR
RJBK 180100Z 17003KT 120V210 08KM FEW035CU SCT/// 30/24 Q1007 A2975
RJOB 180100Z VRB04KT 9000 FEW015 SCT020 29/24 Q1008
RJOT 180100Z VRB02KT 9999 FEW030 SCT/// 29/23 Q1008
RJOA 180100Z 15004KT 070V240 9999 SCT020 SCT140 BKN/// 28/20 Q1009
TAF
RJOB 172306Z 1800/1906 14004KT 9999 FEW020
         BECMG 1804/1806 20005KT
         BECMG 1812/1815 03005KT
RJOT 172311Z 1800/1906 31004KT 9999 FEW030
         BECMG 1809/1811 15005KT
RJOA 172313Z 1800/1906 15004KT 9999 FEW025
         BECMG 1810/1812 32005KT
         BECMG 1821/1900 15005KT

待望のファルケの訓練フライト再開で多くの訓練生が集まったのですが。。。
教官が1名と厳しーい状況になってしまいましたが、何とかクリアできました。お疲れさまでした。
一方、タイフーンは順調に整備も進みもう少しで整備完了です。


解散    18:00

1番機  11:25離陸 撤収機  17:05着陸 

SF25C JA2330 ファルケ     09Flt.3h35min  
17E   JA2342 タイフーン    00Flt.0h00min  
合計                    09Flt.3h35min
08月04日
by OGC at 2019/8/5(月) 00:07:38 No.20190805000606 コメント】  削除 引用
1706 x 960 x 114,212バイト <この画像は大きいので別画面で表示します>
No.1

08月04日
本日の参加者
  会員      13名
  その他      0名


@本日の様子




METAR
RJBK 040000Z 07003KT 010V110 15KM FEW015CU BKN025CU 30/25 Q1011 A2987
RJOB 040000Z VRB03KT 9999 FEW010 SCT015 29/26 Q1012
RJOT 040000Z VRB04KT 9999 FEW020 29/24 Q1012
RJOA 040000Z 12003KT 080V150 6000 FEW008 BKN013 27/23 Q1013
TAF
RJOB 032311Z 0400/0506 13006KT 9999 FEW025 SCT035
RJOT 032313Z 0400/0506 06008KT 9999 FEW025
RJOA 032308Z 0400/0506 15006KT 9999 FEW015 SCT030
          TEMPO 0400/0401 4000 BR BCFG FEW000 BKN008 BKN015
          BECMG 0409/0411 32005KT
          BECMG 0415/0418 07010KT

本日も猛暑日、暑い中整備を行い、ファルケ2機とも整備完了。タイフーンはまだ整備中。
次回から訓練フライト再開です。整備に汗を流した方お疲れ様です。(次週はお盆休み)


解散    18:30

1番機  16:45離陸 撤収機  17:55着陸 

SF25C JA2330 ファルケ     02Flt.0h45min  
17E   JA2342 タイフーン    00Flt.0h00min  
合計                    02Flt.0h45min
ホームページへ 全 50 件 [ 1 2 3 4 5 ]

モータースポーツ | 管理者へメール | お知らせ | 一括削除
携帯から使う方法 | ヘルプ | 利用規約 | 違反報告 | 管理パネル



- 無料レンタル掲示板 -